Terminal Aerodrome Forecast
Issued by NWS

Home | Current Version | Previous Version | Text Only | Print | Product List | Glossary On
Versions: 1 2 3 4 5 6 7 8 9 10 11 12 13 14 15 16 17 18 19 20 21 22 23 24 25 26
000
FTUS46 KOTX 240121 AAA
TAFSFF
TAF AMD
KSFF 240121Z 2401/2424 23015G25KT P6SM VCSH SCT020 BKN100
     FM240500 22015KT P6SM SCT025 BKN040 BKN100
     FM240800 22013KT P6SM BKN040
     FM241700 21015G22KT P6SM BKN040=

USA.gov is the U.S. government's official web portal to all federal, state and local government web resources and services.